Terminal Aerodrome Forecast
Issued by NWS Jacksonville, FL

Current Version | Previous Version | Text Only | Print | Product List | Glossary On
Versions: 1 2 3 4 5 6 7 8 9 10 11 12 13 14 15 16 17 18 19
000
FTUS42 KJAX 260322 AAC
TAFGNV
TAF AMD
KGNV 260322Z 2603/2624 24009KT P6SM VCSH SCT040 BKN120
     FM260900 24007KT P6SM SCT010 SCT120 BKN200
     FM261300 25010G18KT P6SM SCT020 SCT200
     FM261600 26015G25KT P6SM VCTS BKN040CB BKN250=

USA.gov is the U.S. government's official web portal to all federal, state and local government web resources and services.